Terminal Aerodrome Forecast
Issued by NWS

Home | Current Version | Previous Version | Text Only | Print | Product List | Glossary On
Versions: 1 2 3 4 5 6 7 8 9 10 11 12 13 14 15 16 17 18 19 20 21 22 23 24 25 26
908
FTUS41 KILN 280702 AAA
TAFLUK
TAF AMD
KLUK 280702Z 2807/2906 00000KT 1 1/2SM BR SCT130 BKN250
      TEMPO 2809/2813 1/2SM FG VV002
     FM281300 02003KT P6SM SCT120 BKN250
     FM281600 02004KT P6SM SCT040 BKN250
     FM290000 VRB03KT P6SM SCT130=

USA.gov is the U.S. government's official web portal to all federal, state and local government web resources and services.